sensor_id;sensor_type;location;lat;lon;timestamp;pressure;altitude;pressure_sealevel;temperature;humidity
804;BME280;25687;49.976;8.240;2023-08-30T00:00:13;99442.91;;;15.21;100.00
804;BME280;25687;49.976;8.240;2023-08-30T00:02:38;99443.94;;;14.88;100.00
804;BME280;25687;49.976;8.240;2023-08-30T00:05:04;99446.53;;;14.88;100.00
804;BME280;25687;49.976;8.240;2023-08-30T00:07:29;99451.22;;;14.94;100.00
804;BME280;25687;49.976;8.240;2023-08-30T00:09:56;99447.84;;;15.03;100.00
804;BME280;25687;49.976;8.240;2023-08-30T00:12:21;99451.00;;;15.07;100.00
804;BME280;25687;49.976;8.240;2023-08-30T00:14:47;99444.75;;;15.09;100.00
804;BME280;25687;49.976;8.240;2023-08-30T00:17:12;99451.66;;;14.99;100.00
804;BME280;25687;49.976;8.240;2023-08-30T00:19:37;99444.19;;;14.84;100.00
804;BME280;25687;49.976;8.240;2023-08-30T00:22:03;99448.44;;;14.85;100.00
804;BME280;25687;49.976;8.240;2023-08-30T00:24:28;99449.19;;;14.97;100.00
804;BME280;25687;49.976;8.240;2023-08-30T00:26:53;99448.69;;;15.04;100.00
804;BME280;25687;49.976;8.240;2023-08-30T00:29:18;99445.53;;;15.00;100.00
804;BME280;25687;49.976;8.240;2023-08-30T00:31:44;99446.53;;;14.88;100.00
804;BME280;25687;49.976;8.240;2023-08-30T00:34:09;99452.38;;;14.80;100.00
804;BME280;25687;49.976;8.240;2023-08-30T00:36:34;99457.03;;;14.86;100.00
804;BME280;25687;49.976;8.240;2023-08-30T00:39:00;99447.44;;;14.77;100.00
804;BME280;25687;49.976;8.240;2023-08-30T00:41:25;99445.41;;;14.80;100.00
804;BME280;25687;49.976;8.240;2023-08-30T00:43:50;99445.41;;;14.80;100.00
804;BME280;25687;49.976;8.240;2023-08-30T00:46:16;99440.84;;;14.94;100.00
804;BME280;25687;49.976;8.240;2023-08-30T00:48:41;99437.75;;;15.00;100.00
804;BME280;25687;49.976;8.240;2023-08-30T00:51:07;99437.47;;;15.03;100.00
804;BME280;25687;49.976;8.240;2023-08-30T00:53:32;99435.88;;;15.12;100.00
804;BME280;25687;49.976;8.240;2023-08-30T00:55:57;99441.06;;;15.12;100.00
804;BME280;25687;49.976;8.240;2023-08-30T00:58:23;99430.16;;;15.08;100.00
804;BME280;25687;49.976;8.240;2023-08-30T01:00:52;99432.66;;;14.89;100.00
804;BME280;25687;49.976;8.240;2023-08-30T01:03:17;99434.91;;;14.82;100.00
804;BME280;25687;49.976;8.240;2023-08-30T01:05:42;99425.56;;;14.91;100.00
804;BME280;25687;49.976;8.240;2023-08-30T01:08:08;99420.94;;;14.94;100.00
804;BME280;25687;49.976;8.240;2023-08-30T01:10:59;99419.81;;;14.66;100.00
804;BME280;25687;49.976;8.240;2023-08-30T01:13:29;99416.94;;;14.80;100.00
804;BME280;25687;49.976;8.240;2023-08-30T01:15:56;99411.09;;;14.88;100.00
804;BME280;25687;49.976;8.240;2023-08-30T01:18:26;99407.00;;;14.85;100.00
804;BME280;25687;49.976;8.240;2023-08-30T01:20:52;99410.47;;;14.96;100.00
804;BME280;25687;49.976;8.240;2023-08-30T01:23:53;99404.97;;;14.89;100.00
804;BME280;25687;49.976;8.240;2023-08-30T01:29:16;99396.91;;;14.82;100.00
804;BME280;25687;49.976;8.240;2023-08-30T01:31:43;99391.50;;;14.95;100.00
804;BME280;25687;49.976;8.240;2023-08-30T01:34:10;99384.69;;;14.94;100.00
804;BME280;25687;49.976;8.240;2023-08-30T01:36:38;99386.19;;;14.97;100.00
804;BME280;25687;49.976;8.240;2023-08-30T01:39:04;99382.28;;;15.03;100.00
804;BME280;25687;49.976;8.240;2023-08-30T01:41:30;99382.28;;;15.03;100.00
804;BME280;25687;49.976;8.240;2023-08-30T01:43:57;99387.22;;;15.15;100.00
804;BME280;25687;49.976;8.240;2023-08-30T01:46:24;99381.94;;;15.17;100.00
804;BME280;25687;49.976;8.240;2023-08-30T01:48:49;99381.81;;;15.19;100.00
804;BME280;25687;49.976;8.240;2023-08-30T01:51:16;99379.78;;;15.22;100.00
804;BME280;25687;49.976;8.240;2023-08-30T01:53:43;99376.44;;;15.10;100.00
804;BME280;25687;49.976;8.240;2023-08-30T01:56:10;99375.22;;;15.05;100.00
804;BME280;25687;49.976;8.240;2023-08-30T01:58:35;99376.88;;;15.15;100.00
804;BME280;25687;49.976;8.240;2023-08-30T02:01:00;99385.75;;;15.23;100.00
804;BME280;25687;49.976;8.240;2023-08-30T02:03:26;99387.22;;;15.15;100.00
804;BME280;25687;49.976;8.240;2023-08-30T02:06:06;99393.34;;;15.05;100.00
804;BME280;25687;49.976;8.240;2023-08-30T02:09:04;99392.59;;;14.93;100.00
804;BME280;25687;49.976;8.240;2023-08-30T02:11:35;99400.41;;;15.03;100.00
804;BME280;25687;49.976;8.240;2023-08-30T02:14:04;99398.47;;;14.95;100.00
804;BME280;25687;49.976;8.240;2023-08-30T02:16:31;99393.25;;;14.85;100.00
804;BME280;25687;49.976;8.240;2023-08-30T02:18:57;99392.81;;;14.80;100.00
804;BME280;25687;49.976;8.240;2023-08-30T02:21:23;99397.03;;;14.81;100.00
804;BME280;25687;49.976;8.240;2023-08-30T02:23:50;99394.28;;;14.73;100.00
804;BME280;25687;49.976;8.240;2023-08-30T02:26:15;99394.00;;;14.76;100.00
804;BME280;25687;49.976;8.240;2023-08-30T02:28:40;99386.94;;;14.57;100.00
804;BME280;25687;49.976;8.240;2023-08-30T02:31:06;99384.34;;;14.57;100.00
804;BME280;25687;49.976;8.240;2023-08-30T02:33:31;99388.50;;;14.48;100.00
804;BME280;25687;49.976;8.240;2023-08-30T02:35:56;99385.47;;;14.22;100.00
804;BME280;25687;49.976;8.240;2023-08-30T02:38:21;99386.03;;;14.25;100.00
804;BME280;25687;49.976;8.240;2023-08-30T02:40:47;99391.16;;;14.36;100.00
804;BME280;25687;49.976;8.240;2023-08-30T02:43:12;99403.31;;;14.46;100.00
804;BME280;25687;49.976;8.240;2023-08-30T02:45:37;99393.41;;;14.51;100.00
804;BME280;25687;49.976;8.240;2023-08-30T02:48:03;99393.81;;;14.46;100.00
804;BME280;25687;49.976;8.240;2023-08-30T02:50:28;99393.03;;;14.56;100.00
804;BME280;25687;49.976;8.240;2023-08-30T02:52:54;99391.03;;;14.59;100.00
804;BME280;25687;49.976;8.240;2023-08-30T02:55:19;99380.75;;;14.48;100.00
804;BME280;25687;49.976;8.240;2023-08-30T02:57:44;99386.09;;;14.35;100.00
804;BME280;25687;49.976;8.240;2023-08-30T03:00:12;99381.38;;;14.40;100.00
804;BME280;25687;49.976;8.240;2023-08-30T03:02:37;99385.41;;;14.33;100.00
804;BME280;25687;49.976;8.240;2023-08-30T03:05:02;99381.88;;;14.34;100.00
804;BME280;25687;49.976;8.240;2023-08-30T03:07:29;99387.50;;;14.39;100.00
804;BME280;25687;49.976;8.240;2023-08-30T03:09:54;99378.31;;;14.35;100.00
804;BME280;25687;49.976;8.240;2023-08-30T03:12:20;99379.47;;;14.42;100.00
804;BME280;25687;49.976;8.240;2023-08-30T03:14:46;99372.59;;;14.52;100.00
804;BME280;25687;49.976;8.240;2023-08-30T03:17:11;99373.16;;;14.56;100.00
804;BME280;25687;49.976;8.240;2023-08-30T03:19:36;99378.03;;;14.49;100.00
804;BME280;25687;49.976;8.240;2023-08-30T03:22:02;99386.22;;;14.55;100.00
804;BME280;25687;49.976;8.240;2023-08-30T03:24:27;99386.66;;;14.60;100.00
804;BME280;25687;49.976;8.240;2023-08-30T03:26:52;99385.03;;;14.59;100.00
804;BME280;25687;49.976;8.240;2023-08-30T03:29:18;99383.63;;;14.55;100.00
804;BME280;25687;49.976;8.240;2023-08-30T03:31:43;99383.41;;;14.58;100.00
804;BME280;25687;49.976;8.240;2023-08-30T03:34:08;99384.84;;;14.50;100.00
804;BME280;25687;49.976;8.240;2023-08-30T03:36:34;99384.34;;;14.57;100.00
804;BME280;25687;49.976;8.240;2023-08-30T03:38:59;99370.81;;;14.53;100.00
804;BME280;25687;49.976;8.240;2023-08-30T03:41:24;99368.50;;;14.50;100.00
804;BME280;25687;49.976;8.240;2023-08-30T03:43:50;99377.78;;;14.52;100.00
804;BME280;25687;49.976;8.240;2023-08-30T03:46:15;99368.69;;;14.58;100.00
804;BME280;25687;49.976;8.240;2023-08-30T03:48:40;99376.78;;;14.44;100.00
804;BME280;25687;49.976;8.240;2023-08-30T03:51:05;99375.06;;;14.33;100.00
804;BME280;25687;49.976;8.240;2023-08-30T03:53:31;99377.38;;;14.36;100.00
804;BME280;25687;49.976;8.240;2023-08-30T03:55:56;99384.63;;;14.21;100.00
804;BME280;25687;49.976;8.240;2023-08-30T03:58:21;99382.56;;;14.36;100.00
804;BME280;25687;49.976;8.240;2023-08-30T04:00:47;99376.72;;;14.34;100.00
804;BME280;25687;49.976;8.240;2023-08-30T04:03:14;99368.53;;;14.39;100.00
804;BME280;25687;49.976;8.240;2023-08-30T04:05:40;99368.88;;;14.45;100.00
804;BME280;25687;49.976;8.240;2023-08-30T04:08:07;99372.16;;;14.47;100.00
804;BME280;25687;49.976;8.240;2023-08-30T04:10:39;99368.44;;;14.40;100.00
804;BME280;25687;49.976;8.240;2023-08-30T04:13:05;99381.47;;;14.39;100.00
804;BME280;25687;49.976;8.240;2023-08-30T04:15:35;99384.56;;;14.11;100.00
804;BME280;25687;49.976;8.240;2023-08-30T04:18:01;99378.28;;;14.25;100.00
804;BME280;25687;49.976;8.240;2023-08-30T04:20:27;99379.09;;;14.26;100.00
804;BME280;25687;49.976;8.240;2023-08-30T04:22:52;99375.88;;;14.33;100.00
804;BME280;25687;49.976;8.240;2023-08-30T04:25:20;99375.06;;;14.33;100.00
804;BME280;25687;49.976;8.240;2023-08-30T04:27:45;99376.81;;;14.32;100.00
804;BME280;25687;49.976;8.240;2023-08-30T04:30:11;99369.56;;;14.26;100.00
804;BME280;25687;49.976;8.240;2023-08-30T04:32:36;99373.34;;;14.22;100.00
804;BME280;25687;49.976;8.240;2023-08-30T04:35:02;99368.16;;;14.22;100.00
804;BME280;25687;49.976;8.240;2023-08-30T04:37:30;99372.78;;;14.18;100.00
804;BME280;25687;49.976;8.240;2023-08-30T04:39:56;99371.75;;;14.10;100.00
804;BME280;25687;49.976;8.240;2023-08-30T04:42:22;99380.00;;;14.03;100.00
804;BME280;25687;49.976;8.240;2023-08-30T04:44:47;99378.13;;;14.06;100.00
804;BME280;25687;49.976;8.240;2023-08-30T04:47:12;99376.47;;;14.04;100.00
804;BME280;25687;49.976;8.240;2023-08-30T04:49:37;99366.13;;;14.04;100.00
804;BME280;25687;49.976;8.240;2023-08-30T04:52:04;99372.38;;;14.02;100.00
804;BME280;25687;49.976;8.240;2023-08-30T04:54:29;99375.53;;;14.06;100.00
804;BME280;25687;49.976;8.240;2023-08-30T04:56:54;99371.44;;;14.03;100.00
804;BME280;25687;49.976;8.240;2023-08-30T04:59:20;99371.09;;;13.96;100.00
804;BME280;25687;49.976;8.240;2023-08-30T05:01:45;99373.16;;;13.81;100.00
804;BME280;25687;49.976;8.240;2023-08-30T05:04:11;99367.66;;;13.75;100.00
804;BME280;25687;49.976;8.240;2023-08-30T05:06:36;99371.63;;;13.79;100.00
804;BME280;25687;49.976;8.240;2023-08-30T05:09:01;99375.38;;;13.86;100.00
804;BME280;25687;49.976;8.240;2023-08-30T05:11:27;99374.03;;;13.92;100.00
804;BME280;25687;49.976;8.240;2023-08-30T05:13:52;99382.38;;;13.95;100.00
804;BME280;25687;49.976;8.240;2023-08-30T05:16:18;99376.03;;;13.99;100.00
804;BME280;25687;49.976;8.240;2023-08-30T05:18:43;99363.22;;;13.98;100.00
804;BME280;25687;49.976;8.240;2023-08-30T05:21:08;99375.66;;;14.04;100.00
804;BME280;25687;49.976;8.240;2023-08-30T05:23:34;99375.72;;;14.14;100.00
804;BME280;25687;49.976;8.240;2023-08-30T05:25:59;99375.16;;;14.10;100.00
804;BME280;25687;49.976;8.240;2023-08-30T05:28:24;99373.84;;;14.16;100.00
804;BME280;25687;49.976;8.240;2023-08-30T05:30:49;99375.00;;;14.23;100.00
804;BME280;25687;49.976;8.240;2023-08-30T05:33:15;99379.66;;;14.08;100.00
804;BME280;25687;49.976;8.240;2023-08-30T05:35:41;99377.28;;;14.05;100.00
804;BME280;25687;49.976;8.240;2023-08-30T05:38:06;99381.25;;;14.20;100.00
804;BME280;25687;49.976;8.240;2023-08-30T05:40:31;99379.53;;;14.31;100.00
804;BME280;25687;49.976;8.240;2023-08-30T05:42:56;99369.13;;;14.42;100.00
804;BME280;25687;49.976;8.240;2023-08-30T05:45:22;99366.66;;;14.62;100.00
804;BME280;25687;49.976;8.240;2023-08-30T05:47:47;99370.88;;;14.63;100.00
804;BME280;25687;49.976;8.240;2023-08-30T05:50:13;99360.47;;;14.74;100.00
804;BME280;25687;49.976;8.240;2023-08-30T05:52:38;99359.44;;;14.87;100.00
804;BME280;25687;49.976;8.240;2023-08-30T05:55:09;99361.13;;;14.97;100.00
804;BME280;25687;49.976;8.240;2023-08-30T05:57:34;99364.16;;;15.03;100.00
804;BME280;25687;49.976;8.240;2023-08-30T06:00:01;99365.41;;;15.08;100.00
804;BME280;25687;49.976;8.240;2023-08-30T06:02:26;99365.06;;;15.32;100.00
804;BME280;25687;49.976;8.240;2023-08-30T06:04:52;99360.50;;;15.56;100.00
804;BME280;25687;49.976;8.240;2023-08-30T06:07:17;99361.84;;;15.60;100.00
804;BME280;25687;49.976;8.240;2023-08-30T06:09:42;99363.09;;;15.65;100.00
804;BME280;25687;49.976;8.240;2023-08-30T06:12:08;99352.97;;;15.62;100.00
804;BME280;25687;49.976;8.240;2023-08-30T06:14:33;99358.78;;;15.86;100.00
804;BME280;25687;49.976;8.240;2023-08-30T06:16:58;99359.03;;;15.82;100.00
804;BME280;25687;49.976;8.240;2023-08-30T06:19:23;99351.66;;;16.17;100.00
804;BME280;25687;49.976;8.240;2023-08-30T06:21:49;99354.94;;;16.29;100.00
804;BME280;25687;49.976;8.240;2023-08-30T06:24:14;99354.53;;;16.24;100.00
804;BME280;25687;49.976;8.240;2023-08-30T06:26:39;99351.59;;;16.56;100.00
804;BME280;25687;49.976;8.240;2023-08-30T06:29:04;99352.22;;;16.68;100.00
804;BME280;25687;49.976;8.240;2023-08-30T06:31:30;99354.75;;;16.88;100.00
804;BME280;25687;49.976;8.240;2023-08-30T06:33:57;99355.13;;;17.03;100.00
804;BME280;25687;49.976;8.240;2023-08-30T06:36:22;99358.97;;;17.08;100.00
804;BME280;25687;49.976;8.240;2023-08-30T06:38:48;99369.97;;;17.20;100.00
804;BME280;25687;49.976;8.240;2023-08-30T06:41:13;99369.84;;;17.22;100.00
804;BME280;25687;49.976;8.240;2023-08-30T06:43:38;99370.13;;;17.47;100.00
804;BME280;25687;49.976;8.240;2023-08-30T06:46:04;99369.66;;;17.51;100.00
804;BME280;25687;49.976;8.240;2023-08-30T06:48:29;99366.50;;;17.94;100.00
804;BME280;25687;49.976;8.240;2023-08-30T06:50:57;99358.34;;;18.25;100.00
804;BME280;25687;49.976;8.240;2023-08-30T06:53:23;99358.25;;;18.69;100.00
804;BME280;25687;49.976;8.240;2023-08-30T06:55:59;99354.47;;;18.90;100.00
804;BME280;25687;49.976;8.240;2023-08-30T06:58:25;99354.16;;;18.93;100.00
804;BME280;25687;49.976;8.240;2023-08-30T07:00:51;99353.28;;;19.10;100.00
804;BME280;25687;49.976;8.240;2023-08-30T07:03:16;99350.84;;;19.76;100.00
804;BME280;25687;49.976;8.240;2023-08-30T07:05:41;99358.72;;;20.01;100.00
804;BME280;25687;49.976;8.240;2023-08-30T07:08:08;99357.19;;;20.48;100.00
804;BME280;25687;49.976;8.240;2023-08-30T07:10:34;99357.47;;;20.70;100.00
804;BME280;25687;49.976;8.240;2023-08-30T07:12:59;99354.41;;;20.50;100.00
804;BME280;25687;49.976;8.240;2023-08-30T07:15:25;99357.06;;;20.33;100.00
804;BME280;25687;49.976;8.240;2023-08-30T07:17:50;99352.53;;;20.91;100.00
804;BME280;25687;49.976;8.240;2023-08-30T07:20:16;99352.84;;;20.88;100.00
804;BME280;25687;49.976;8.240;2023-08-30T07:22:42;99348.03;;;21.08;100.00
804;BME280;25687;49.976;8.240;2023-08-30T07:25:07;99342.03;;;21.00;100.00
804;BME280;25687;49.976;8.240;2023-08-30T07:27:35;99336.75;;;21.39;100.00
804;BME280;25687;49.976;8.240;2023-08-30T07:30:00;99341.44;;;21.21;100.00
804;BME280;25687;49.976;8.240;2023-08-30T07:32:25;99342.38;;;21.83;100.00
804;BME280;25687;49.976;8.240;2023-08-30T07:34:50;99349.66;;;21.72;100.00
804;BME280;25687;49.976;8.240;2023-08-30T07:37:20;99345.25;;;21.73;100.00
804;BME280;25687;49.976;8.240;2023-08-30T07:39:45;99342.84;;;22.09;100.00
804;BME280;25687;49.976;8.240;2023-08-30T07:42:10;99352.59;;;22.16;100.00
804;BME280;25687;49.976;8.240;2023-08-30T07:44:36;99342.47;;;22.13;100.00
804;BME280;25687;49.976;8.240;2023-08-30T07:47:01;99344.84;;;22.22;100.00
804;BME280;25687;49.976;8.240;2023-08-30T07:49:26;99343.28;;;22.13;100.00
804;BME280;25687;49.976;8.240;2023-08-30T07:51:51;99347.25;;;22.47;100.00
804;BME280;25687;49.976;8.240;2023-08-30T07:54:17;99344.16;;;22.73;100.00
804;BME280;25687;49.976;8.240;2023-08-30T07:56:42;99340.28;;;22.54;100.00
804;BME280;25687;49.976;8.240;2023-08-30T07:59:07;99349.66;;;21.96;100.00
804;BME280;25687;49.976;8.240;2023-08-30T08:01:33;99348.56;;;21.90;100.00
804;BME280;25687;49.976;8.240;2023-08-30T08:03:58;99351.06;;;21.83;100.00
804;BME280;25687;49.976;8.240;2023-08-30T08:06:23;99343.88;;;21.54;100.00
804;BME280;25687;49.976;8.240;2023-08-30T08:08:48;99340.50;;;21.45;100.00
804;BME280;25687;49.976;8.240;2023-08-30T08:11:13;99343.88;;;20.91;100.00
804;BME280;25687;49.976;8.240;2023-08-30T08:13:39;99349.47;;;20.79;100.00
804;BME280;25687;49.976;8.240;2023-08-30T08:16:04;99353.22;;;20.77;100.00
804;BME280;25687;49.976;8.240;2023-08-30T08:18:29;99350.41;;;20.95;100.00
804;BME280;25687;49.976;8.240;2023-08-30T08:20:55;99354.81;;;20.94;100.00
804;BME280;25687;49.976;8.240;2023-08-30T08:23:20;99357.47;;;21.18;100.00
804;BME280;25687;49.976;8.240;2023-08-30T08:25:46;99351.47;;;21.40;100.00
804;BME280;25687;49.976;8.240;2023-08-30T08:28:11;99356.88;;;21.93;100.00
804;BME280;25687;49.976;8.240;2023-08-30T08:30:36;99360.69;;;22.06;100.00
804;BME280;25687;49.976;8.240;2023-08-30T08:33:01;99361.66;;;22.28;100.00
804;BME280;25687;49.976;8.240;2023-08-30T08:35:27;99356.38;;;22.13;100.00
804;BME280;25687;49.976;8.240;2023-08-30T08:37:52;99360.19;;;21.87;100.00
804;BME280;25687;49.976;8.240;2023-08-30T08:40:18;99362.44;;;21.36;100.00
804;BME280;25687;49.976;8.240;2023-08-30T08:42:43;99362.72;;;21.81;100.00
804;BME280;25687;49.976;8.240;2023-08-30T08:45:10;99362.06;;;21.79;100.00
804;BME280;25687;49.976;8.240;2023-08-30T08:47:38;99364.84;;;20.74;100.00
804;BME280;25687;49.976;8.240;2023-08-30T08:50:04;99361.63;;;20.31;100.00
804;BME280;25687;49.976;8.240;2023-08-30T08:52:30;99358.56;;;20.92;100.00
804;BME280;25687;49.976;8.240;2023-08-30T08:54:56;99357.28;;;21.59;100.00
804;BME280;25687;49.976;8.240;2023-08-30T08:57:22;99360.25;;;22.02;100.00
804;BME280;25687;49.976;8.240;2023-08-30T08:59:47;99353.91;;;23.25;100.00
804;BME280;25687;49.976;8.240;2023-08-30T09:02:14;99353.66;;;24.56;90.04
804;BME280;25687;49.976;8.240;2023-08-30T09:04:40;99357.75;;;25.69;80.19
804;BME280;25687;49.976;8.240;2023-08-30T09:07:05;99361.84;;;26.32;68.34
804;BME280;25687;49.976;8.240;2023-08-30T09:09:32;99364.75;;;26.83;65.84
804;BME280;25687;49.976;8.240;2023-08-30T09:11:58;99356.22;;;27.72;58.66
804;BME280;25687;49.976;8.240;2023-08-30T09:14:23;99365.25;;;28.33;56.20
804;BME280;25687;49.976;8.240;2023-08-30T09:16:55;99361.13;;;28.81;51.71
804;BME280;25687;49.976;8.240;2023-08-30T09:19:21;99353.94;;;27.75;59.51
804;BME280;25687;49.976;8.240;2023-08-30T09:21:51;99349.94;;;27.66;65.67
804;BME280;25687;49.976;8.240;2023-08-30T09:24:17;99343.06;;;28.15;56.36
804;BME280;25687;49.976;8.240;2023-08-30T09:26:49;99330.34;;;28.06;55.44
804;BME280;25687;49.976;8.240;2023-08-30T09:29:16;99335.59;;;30.02;49.91
804;BME280;25687;49.976;8.240;2023-08-30T09:31:42;99332.63;;;30.86;43.74
804;BME280;25687;49.976;8.240;2023-08-30T09:34:07;99342.25;;;30.75;45.67
804;BME280;25687;49.976;8.240;2023-08-30T09:36:39;99333.03;;;31.07;43.67
804;BME280;25687;49.976;8.240;2023-08-30T09:41:31;99323.38;;;30.13;46.75
804;BME280;25687;49.976;8.240;2023-08-30T09:43:59;99318.78;;;29.96;45.29
804;BME280;25687;49.976;8.240;2023-08-30T09:46:24;99313.44;;;29.60;45.93
804;BME280;25687;49.976;8.240;2023-08-30T09:48:50;99310.94;;;29.05;46.07
804;BME280;25687;49.976;8.240;2023-08-30T09:51:16;99323.91;;;31.32;43.48
804;BME280;25687;49.976;8.240;2023-08-30T09:53:45;99323.31;;;31.13;42.02
804;BME280;25687;49.976;8.240;2023-08-30T09:56:13;99313.28;;;31.83;39.15
804;BME280;25687;49.976;8.240;2023-08-30T09:58:40;99305.66;;;31.52;37.93
804;BME280;25687;49.976;8.240;2023-08-30T10:01:07;99303.78;;;32.04;38.88
804;BME280;25687;49.976;8.240;2023-08-30T10:03:34;99306.81;;;30.70;40.04
804;BME280;25687;49.976;8.240;2023-08-30T10:05:59;99300.81;;;26.08;58.96
804;BME280;25687;49.976;8.240;2023-08-30T10:08:29;99297.16;;;26.88;58.81
804;BME280;25687;49.976;8.240;2023-08-30T10:10:58;99285.47;;;27.48;55.66
804;BME280;25687;49.976;8.240;2023-08-30T10:13:24;99283.44;;;29.36;46.25
804;BME280;25687;49.976;8.240;2023-08-30T10:15:53;99282.91;;;28.85;47.43
804;BME280;25687;49.976;8.240;2023-08-30T10:18:22;99280.50;;;30.16;43.72
804;BME280;25687;49.976;8.240;2023-08-30T10:20:54;99283.06;;;29.99;42.67
804;BME280;25687;49.976;8.240;2023-08-30T10:23:20;99291.44;;;29.60;45.42
804;BME280;25687;49.976;8.240;2023-08-30T10:25:48;99277.50;;;29.22;47.26
804;BME280;25687;49.976;8.240;2023-08-30T10:28:15;99283.34;;;28.63;44.31
804;BME280;25687;49.976;8.240;2023-08-30T10:30:41;99276.56;;;28.37;46.99
804;BME280;25687;49.976;8.240;2023-08-30T10:33:13;99259.31;;;29.26;42.81
804;BME280;25687;49.976;8.240;2023-08-30T10:35:48;99265.41;;;29.14;41.77
804;BME280;25687;49.976;8.240;2023-08-30T10:38:24;99261.66;;;27.55;47.24
804;BME280;25687;49.976;8.240;2023-08-30T10:40:51;99267.16;;;26.10;54.35
804;BME280;25687;49.976;8.240;2023-08-30T10:43:28;99260.28;;;26.03;54.77
804;BME280;25687;49.976;8.240;2023-08-30T10:45:59;99265.75;;;25.74;58.97
804;BME280;25687;49.976;8.240;2023-08-30T10:48:34;99255.75;;;24.96;62.27
804;BME280;25687;49.976;8.240;2023-08-30T10:51:00;99260.81;;;25.11;67.28
804;BME280;25687;49.976;8.240;2023-08-30T10:53:29;99255.06;;;24.80;72.73
804;BME280;25687;49.976;8.240;2023-08-30T10:56:09;99262.25;;;24.16;72.15
804;BME280;25687;49.976;8.240;2023-08-30T10:58:42;99250.53;;;23.41;77.68
804;BME280;25687;49.976;8.240;2023-08-30T11:01:10;99244.47;;;23.40;73.24
804;BME280;25687;49.976;8.240;2023-08-30T11:03:37;99242.44;;;23.64;78.72
804;BME280;25687;49.976;8.240;2023-08-30T11:06:03;99236.91;;;23.30;78.21
804;BME280;25687;49.976;8.240;2023-08-30T11:08:29;99237.50;;;23.54;76.02
804;BME280;25687;49.976;8.240;2023-08-30T11:11:07;99232.34;;;23.89;71.73
804;BME280;25687;49.976;8.240;2023-08-30T11:13:33;99226.47;;;23.87;71.38
804;BME280;25687;49.976;8.240;2023-08-30T11:16:02;99236.59;;;23.62;74.93
804;BME280;25687;49.976;8.240;2023-08-30T11:18:29;99235.06;;;23.74;82.99
804;BME280;25687;49.976;8.240;2023-08-30T11:20:59;99232.84;;;23.49;76.53
804;BME280;25687;49.976;8.240;2023-08-30T11:23:25;99237.06;;;23.22;78.03
804;BME280;25687;49.976;8.240;2023-08-30T11:25:51;99226.75;;;23.05;77.10
804;BME280;25687;49.976;8.240;2023-08-30T11:28:22;99227.25;;;23.31;78.01
804;BME280;25687;49.976;8.240;2023-08-30T11:30:47;99222.00;;;23.31;77.26
804;BME280;25687;49.976;8.240;2023-08-30T11:33:12;99219.84;;;23.19;65.91
804;BME280;25687;49.976;8.240;2023-08-30T11:35:38;99207.69;;;22.97;64.90
804;BME280;25687;49.976;8.240;2023-08-30T11:38:03;99205.31;;;23.02;66.32
804;BME280;25687;49.976;8.240;2023-08-30T11:40:29;99206.50;;;22.78;61.88
804;BME280;25687;49.976;8.240;2023-08-30T11:42:57;99201.06;;;22.43;59.33
804;BME280;25687;49.976;8.240;2023-08-30T11:45:22;99200.97;;;22.51;65.58
804;BME280;25687;49.976;8.240;2023-08-30T11:47:47;99202.34;;;22.68;64.61
804;BME280;25687;49.976;8.240;2023-08-30T11:50:13;99197.56;;;22.72;66.84
804;BME280;25687;49.976;8.240;2023-08-30T11:52:39;99200.81;;;22.74;69.33
804;BME280;25687;49.976;8.240;2023-08-30T11:55:05;99199.84;;;22.75;72.03
804;BME280;25687;49.976;8.240;2023-08-30T11:57:38;99194.59;;;22.97;68.07
804;BME280;25687;49.976;8.240;2023-08-30T12:00:12;99193.78;;;22.96;68.56
804;BME280;25687;49.976;8.240;2023-08-30T12:02:39;99199.16;;;22.88;65.91
804;BME280;25687;49.976;8.240;2023-08-30T12:05:04;99204.03;;;23.13;67.20
804;BME280;25687;49.976;8.240;2023-08-30T12:07:30;99188.59;;;23.46;63.70
804;BME280;25687;49.976;8.240;2023-08-30T12:10:10;99206.22;;;23.52;62.95
804;BME280;25687;49.976;8.240;2023-08-30T12:12:36;99200.19;;;23.30;63.11
804;BME280;25687;49.976;8.240;2023-08-30T12:15:10;99201.16;;;23.29;66.50
804;BME280;25687;49.976;8.240;2023-08-30T12:17:36;99195.38;;;23.34;61.37
804;BME280;25687;49.976;8.240;2023-08-30T12:20:02;99198.06;;;23.41;65.25
804;BME280;25687;49.976;8.240;2023-08-30T12:22:54;99199.25;;;23.16;66.12
804;BME280;25687;49.976;8.240;2023-08-30T12:25:21;99198.41;;;22.94;64.78
804;BME280;25687;49.976;8.240;2023-08-30T12:27:48;99194.28;;;23.07;67.69
804;BME280;25687;49.976;8.240;2023-08-30T12:30:16;99196.34;;;23.33;65.56
804;BME280;25687;49.976;8.240;2023-08-30T12:32:42;99184.59;;;23.50;63.98
804;BME280;25687;49.976;8.240;2023-08-30T12:35:07;99175.72;;;23.51;68.42
804;BME280;25687;49.976;8.240;2023-08-30T12:37:33;99185.78;;;23.48;68.67
804;BME280;25687;49.976;8.240;2023-08-30T12:39:59;99186.06;;;23.31;67.45
804;BME280;25687;49.976;8.240;2023-08-30T12:42:24;99177.66;;;23.43;70.70
804;BME280;25687;49.976;8.240;2023-08-30T12:44:50;99168.59;;;23.74;65.18
804;BME280;25687;49.976;8.240;2023-08-30T12:47:15;99170.31;;;23.53;66.45
804;BME280;25687;49.976;8.240;2023-08-30T12:49:40;99172.19;;;23.66;62.51
804;BME280;25687;49.976;8.240;2023-08-30T12:52:06;99167.81;;;23.73;60.25
804;BME280;25687;49.976;8.240;2023-08-30T12:54:32;99167.41;;;23.48;61.17
804;BME280;25687;49.976;8.240;2023-08-30T12:56:57;99170.72;;;23.28;60.32
804;BME280;25687;49.976;8.240;2023-08-30T12:59:22;99165.03;;;23.25;57.43
804;BME280;25687;49.976;8.240;2023-08-30T13:01:47;99174.09;;;23.22;59.68
804;BME280;25687;49.976;8.240;2023-08-30T13:04:13;99163.94;;;23.41;58.43
804;BME280;25687;49.976;8.240;2023-08-30T13:06:38;99174.09;;;23.22;57.22
804;BME280;25687;49.976;8.240;2023-08-30T13:09:03;99163.66;;;23.07;58.05
804;BME280;25687;49.976;8.240;2023-08-30T13:11:29;99169.50;;;23.09;61.83
804;BME280;25687;49.976;8.240;2023-08-30T13:13:57;99156.56;;;23.29;57.04
804;BME280;25687;49.976;8.240;2023-08-30T13:16:24;99159.16;;;23.23;57.15